Chazy Landing, New York
Current Conditions -  °F | °C
As of 6:53 AM on Tuesday 21 Oct 2014 (Local Time) from KPBG Reporting Station
Light Rain Light Rain  
Wind Chill: 43°   Ceiling: 5500
Heat Index: 43°   Visibility: 10mi
Dew Point: 42°   Wind: 0mph
Humidity: 97%   Direction: NA
Pressure: 29.94"   Gusts: NA
Location:  44.8906°N, 73.4663°W
Report Text: KPBG 211053Z AUTO 00000KT 10SM -RA OVC055 06/06 A2994 RMK AO2 RAB52 SLP138 P0000 T00610056
Loading
Personal Weather Stations






























Interactive Weather Map
Tropical Storm Tracking
New forecast layout! Learn more

10-Day Weather Forecast

Advertisements
Track Severe Weather on mobile